sensor_id;sensor_type;location;lat;lon;timestamp;P1;durP1;ratioP1;P2;durP2;ratioP2
15689;SDS011;7945;48.816;11.506;2023-05-10T00:00:07;10.68;;;9.15;;
15689;SDS011;7945;48.816;11.506;2023-05-10T00:02:35;11.40;;;8.80;;
15689;SDS011;7945;48.816;11.506;2023-05-10T00:05:02;10.73;;;8.27;;
15689;SDS011;7945;48.816;11.506;2023-05-10T00:07:31;11.30;;;8.98;;
15689;SDS011;7945;48.816;11.506;2023-05-10T00:09:58;10.57;;;8.85;;
15689;SDS011;7945;48.816;11.506;2023-05-10T00:12:24;12.38;;;9.38;;
15689;SDS011;7945;48.816;11.506;2023-05-10T00:14:51;13.40;;;9.70;;
15689;SDS011;7945;48.816;11.506;2023-05-10T00:17:18;13.43;;;10.02;;
15689;SDS011;7945;48.816;11.506;2023-05-10T00:19:45;13.77;;;10.25;;
15689;SDS011;7945;48.816;11.506;2023-05-10T00:22:11;10.88;;;9.70;;
15689;SDS011;7945;48.816;11.506;2023-05-10T00:24:39;11.70;;;9.88;;
15689;SDS011;7945;48.816;11.506;2023-05-10T00:27:06;14.18;;;9.57;;
15689;SDS011;7945;48.816;11.506;2023-05-10T00:29:33;12.20;;;9.88;;
15689;SDS011;7945;48.816;11.506;2023-05-10T00:32:00;11.40;;;10.00;;
15689;SDS011;7945;48.816;11.506;2023-05-10T00:34:26;9.88;;;8.60;;
15689;SDS011;7945;48.816;11.506;2023-05-10T00:36:53;10.50;;;8.55;;
15689;SDS011;7945;48.816;11.506;2023-05-10T00:39:20;11.82;;;8.52;;
15689;SDS011;7945;48.816;11.506;2023-05-10T00:41:48;10.10;;;7.38;;
15689;SDS011;7945;48.816;11.506;2023-05-10T00:44:15;8.35;;;7.22;;
15689;SDS011;7945;48.816;11.506;2023-05-10T00:46:43;8.05;;;7.22;;
15689;SDS011;7945;48.816;11.506;2023-05-10T00:49:10;9.25;;;7.25;;
15689;SDS011;7945;48.816;11.506;2023-05-10T00:51:37;9.75;;;6.70;;
15689;SDS011;7945;48.816;11.506;2023-05-10T00:54:04;6.03;;;4.65;;
15689;SDS011;7945;48.816;11.506;2023-05-10T00:56:31;5.22;;;4.13;;
15689;SDS011;7945;48.816;11.506;2023-05-10T00:58:59;4.15;;;3.40;;
15689;SDS011;7945;48.816;11.506;2023-05-10T01:01:27;5.60;;;4.00;;
15689;SDS011;7945;48.816;11.506;2023-05-10T01:03:54;3.60;;;3.10;;
15689;SDS011;7945;48.816;11.506;2023-05-10T01:06:22;4.32;;;3.05;;
15689;SDS011;7945;48.816;11.506;2023-05-10T01:08:48;3.53;;;3.20;;
15689;SDS011;7945;48.816;11.506;2023-05-10T01:11:15;3.15;;;2.85;;
15689;SDS011;7945;48.816;11.506;2023-05-10T01:13:43;3.42;;;3.13;;
15689;SDS011;7945;48.816;11.506;2023-05-10T01:16:15;2.97;;;2.67;;
15689;SDS011;7945;48.816;11.506;2023-05-10T01:18:42;6.68;;;3.10;;
15689;SDS011;7945;48.816;11.506;2023-05-10T01:21:14;2.83;;;2.63;;
15689;SDS011;7945;48.816;11.506;2023-05-10T01:23:57;2.33;;;2.13;;
15689;SDS011;7945;48.816;11.506;2023-05-10T01:29:36;2.10;;;2.00;;
15689;SDS011;7945;48.816;11.506;2023-05-10T01:32:22;2.67;;;2.40;;
15689;SDS011;7945;48.816;11.506;2023-05-10T01:34:54;2.95;;;2.13;;
15689;SDS011;7945;48.816;11.506;2023-05-10T01:37:28;2.00;;;1.90;;
15689;SDS011;7945;48.816;11.506;2023-05-10T01:40:02;2.38;;;2.08;;
15689;SDS011;7945;48.816;11.506;2023-05-10T01:42:40;2.20;;;2.08;;
15689;SDS011;7945;48.816;11.506;2023-05-10T01:45:14;1.95;;;1.83;;
15689;SDS011;7945;48.816;11.506;2023-05-10T01:47:48;3.17;;;2.00;;
15689;SDS011;7945;48.816;11.506;2023-05-10T01:50:22;2.42;;;2.00;;
15689;SDS011;7945;48.816;11.506;2023-05-10T01:52:54;2.90;;;2.10;;
15689;SDS011;7945;48.816;11.506;2023-05-10T01:55:24;2.30;;;2.05;;
15689;SDS011;7945;48.816;11.506;2023-05-10T01:58:00;3.03;;;2.08;;
15689;SDS011;7945;48.816;11.506;2023-05-10T02:00:30;2.28;;;2.08;;
15689;SDS011;7945;48.816;11.506;2023-05-10T02:03:01;3.25;;;2.28;;
15689;SDS011;7945;48.816;11.506;2023-05-10T02:05:32;2.25;;;1.95;;
15689;SDS011;7945;48.816;11.506;2023-05-10T02:08:00;2.35;;;2.15;;
15689;SDS011;7945;48.816;11.506;2023-05-10T02:10:29;4.72;;;2.30;;
15689;SDS011;7945;48.816;11.506;2023-05-10T02:12:56;2.40;;;2.20;;
15689;SDS011;7945;48.816;11.506;2023-05-10T02:15:25;2.97;;;2.17;;
15689;SDS011;7945;48.816;11.506;2023-05-10T02:17:54;2.30;;;2.10;;
15689;SDS011;7945;48.816;11.506;2023-05-10T02:20:23;2.40;;;2.20;;
15689;SDS011;7945;48.816;11.506;2023-05-10T02:22:51;3.70;;;3.38;;
15689;SDS011;7945;48.816;11.506;2023-05-10T02:25:21;2.85;;;2.63;;
15689;SDS011;7945;48.816;11.506;2023-05-10T02:27:49;3.08;;;2.35;;
15689;SDS011;7945;48.816;11.506;2023-05-10T02:30:17;2.72;;;2.53;;
15689;SDS011;7945;48.816;11.506;2023-05-10T02:32:45;2.80;;;2.60;;
15689;SDS011;7945;48.816;11.506;2023-05-10T02:35:13;3.50;;;2.42;;
15689;SDS011;7945;48.816;11.506;2023-05-10T02:37:42;2.78;;;2.45;;
15689;SDS011;7945;48.816;11.506;2023-05-10T02:40:11;2.85;;;2.55;;
15689;SDS011;7945;48.816;11.506;2023-05-10T02:42:38;2.30;;;2.13;;
15689;SDS011;7945;48.816;11.506;2023-05-10T02:45:10;3.78;;;2.67;;
15689;SDS011;7945;48.816;11.506;2023-05-10T02:47:39;2.60;;;2.40;;
15689;SDS011;7945;48.816;11.506;2023-05-10T02:50:06;2.88;;;2.33;;
15689;SDS011;7945;48.816;11.506;2023-05-10T02:52:36;2.30;;;2.20;;
15689;SDS011;7945;48.816;11.506;2023-05-10T02:55:08;2.60;;;2.40;;
15689;SDS011;7945;48.816;11.506;2023-05-10T02:57:38;2.97;;;2.53;;
15689;SDS011;7945;48.816;11.506;2023-05-10T03:00:09;2.40;;;2.20;;
15689;SDS011;7945;48.816;11.506;2023-05-10T03:02:36;2.30;;;2.17;;
15689;SDS011;7945;48.816;11.506;2023-05-10T03:05:03;2.83;;;2.42;;
15689;SDS011;7945;48.816;11.506;2023-05-10T03:07:30;3.15;;;2.55;;
15689;SDS011;7945;48.816;11.506;2023-05-10T03:09:57;2.13;;;2.03;;
15689;SDS011;7945;48.816;11.506;2023-05-10T03:12:27;2.83;;;2.60;;
15689;SDS011;7945;48.816;11.506;2023-05-10T03:15:00;2.47;;;2.22;;
15689;SDS011;7945;48.816;11.506;2023-05-10T03:17:36;2.45;;;2.25;;
15689;SDS011;7945;48.816;11.506;2023-05-10T03:20:12;2.80;;;2.60;;
15689;SDS011;7945;48.816;11.506;2023-05-10T03:22:47;2.88;;;2.67;;
15689;SDS011;7945;48.816;11.506;2023-05-10T03:25:17;2.80;;;2.53;;
15689;SDS011;7945;48.816;11.506;2023-05-10T03:27:47;3.15;;;2.70;;
15689;SDS011;7945;48.816;11.506;2023-05-10T03:30:15;2.70;;;2.50;;
15689;SDS011;7945;48.816;11.506;2023-05-10T03:32:43;4.60;;;3.05;;
15689;SDS011;7945;48.816;11.506;2023-05-10T03:35:10;3.58;;;2.80;;
15689;SDS011;7945;48.816;11.506;2023-05-10T03:37:38;3.60;;;3.30;;
15689;SDS011;7945;48.816;11.506;2023-05-10T03:40:05;2.88;;;2.45;;
15689;SDS011;7945;48.816;11.506;2023-05-10T03:42:33;3.15;;;2.63;;
15689;SDS011;7945;48.816;11.506;2023-05-10T03:45:02;3.00;;;2.70;;
15689;SDS011;7945;48.816;11.506;2023-05-10T03:47:29;3.00;;;2.80;;
15689;SDS011;7945;48.816;11.506;2023-05-10T03:49:56;3.22;;;2.92;;
15689;SDS011;7945;48.816;11.506;2023-05-10T03:52:23;3.60;;;3.28;;
15689;SDS011;7945;48.816;11.506;2023-05-10T03:54:50;2.72;;;2.53;;
15689;SDS011;7945;48.816;11.506;2023-05-10T03:57:17;2.33;;;2.13;;
15689;SDS011;7945;48.816;11.506;2023-05-10T03:59:43;2.40;;;1.70;;
15689;SDS011;7945;48.816;11.506;2023-05-10T04:02:11;1.73;;;1.52;;
15689;SDS011;7945;48.816;11.506;2023-05-10T04:04:38;2.00;;;1.45;;
15689;SDS011;7945;48.816;11.506;2023-05-10T04:07:05;1.58;;;1.48;;
15689;SDS011;7945;48.816;11.506;2023-05-10T04:09:31;1.25;;;1.15;;
15689;SDS011;7945;48.816;11.506;2023-05-10T04:11:58;1.30;;;1.20;;
15689;SDS011;7945;48.816;11.506;2023-05-10T04:14:27;1.40;;;1.08;;
15689;SDS011;7945;48.816;11.506;2023-05-10T04:16:53;1.60;;;1.10;;
15689;SDS011;7945;48.816;11.506;2023-05-10T04:19:22;1.70;;;1.25;;
15689;SDS011;7945;48.816;11.506;2023-05-10T04:21:48;2.35;;;1.25;;
15689;SDS011;7945;48.816;11.506;2023-05-10T04:24:15;1.10;;;1.10;;
15689;SDS011;7945;48.816;11.506;2023-05-10T04:26:42;1.25;;;1.10;;
15689;SDS011;7945;48.816;11.506;2023-05-10T04:29:08;1.00;;;1.00;;
15689;SDS011;7945;48.816;11.506;2023-05-10T04:31:35;2.85;;;0.93;;
15689;SDS011;7945;48.816;11.506;2023-05-10T04:34:02;1.00;;;1.00;;
15689;SDS011;7945;48.816;11.506;2023-05-10T04:36:30;0.90;;;0.90;;
15689;SDS011;7945;48.816;11.506;2023-05-10T04:38:57;0.90;;;0.90;;
15689;SDS011;7945;48.816;11.506;2023-05-10T04:41:24;1.55;;;0.98;;
15689;SDS011;7945;48.816;11.506;2023-05-10T04:43:50;0.80;;;0.80;;
15689;SDS011;7945;48.816;11.506;2023-05-10T04:46:17;0.90;;;0.90;;
15689;SDS011;7945;48.816;11.506;2023-05-10T04:48:44;0.95;;;0.90;;
15689;SDS011;7945;48.816;11.506;2023-05-10T04:51:11;1.00;;;1.00;;
15689;SDS011;7945;48.816;11.506;2023-05-10T04:53:39;1.00;;;0.80;;
15689;SDS011;7945;48.816;11.506;2023-05-10T04:56:05;0.90;;;0.90;;
15689;SDS011;7945;48.816;11.506;2023-05-10T04:58:33;3.55;;;1.00;;
15689;SDS011;7945;48.816;11.506;2023-05-10T05:01:04;1.55;;;0.90;;
15689;SDS011;7945;48.816;11.506;2023-05-10T05:03:32;1.20;;;1.10;;
15689;SDS011;7945;48.816;11.506;2023-05-10T05:05:58;1.13;;;0.90;;
15689;SDS011;7945;48.816;11.506;2023-05-10T05:08:25;1.27;;;1.00;;
15689;SDS011;7945;48.816;11.506;2023-05-10T05:10:53;0.73;;;0.73;;
15689;SDS011;7945;48.816;11.506;2023-05-10T05:13:20;1.08;;;1.00;;
15689;SDS011;7945;48.816;11.506;2023-05-10T05:15:47;1.27;;;1.00;;
15689;SDS011;7945;48.816;11.506;2023-05-10T05:18:14;1.27;;;0.98;;
15689;SDS011;7945;48.816;11.506;2023-05-10T05:20:41;0.95;;;0.95;;
15689;SDS011;7945;48.816;11.506;2023-05-10T05:23:07;1.00;;;0.80;;
15689;SDS011;7945;48.816;11.506;2023-05-10T05:25:34;1.13;;;0.90;;
15689;SDS011;7945;48.816;11.506;2023-05-10T05:28:02;0.80;;;0.80;;
15689;SDS011;7945;48.816;11.506;2023-05-10T05:30:29;1.98;;;0.82;;
15689;SDS011;7945;48.816;11.506;2023-05-10T05:32:56;0.90;;;0.90;;
15689;SDS011;7945;48.816;11.506;2023-05-10T05:35:23;0.70;;;0.70;;
15689;SDS011;7945;48.816;11.506;2023-05-10T05:37:51;1.05;;;0.80;;
15689;SDS011;7945;48.816;11.506;2023-05-10T05:40:17;0.70;;;0.70;;
15689;SDS011;7945;48.816;11.506;2023-05-10T05:42:45;0.90;;;0.90;;
15689;SDS011;7945;48.816;11.506;2023-05-10T05:45:13;0.80;;;0.70;;
15689;SDS011;7945;48.816;11.506;2023-05-10T05:47:40;0.82;;;0.70;;
15689;SDS011;7945;48.816;11.506;2023-05-10T05:50:07;0.65;;;0.65;;
15689;SDS011;7945;48.816;11.506;2023-05-10T05:52:34;0.80;;;0.80;;
15689;SDS011;7945;48.816;11.506;2023-05-10T05:55:01;1.33;;;1.33;;
15689;SDS011;7945;48.816;11.506;2023-05-10T05:57:28;1.33;;;0.90;;
15689;SDS011;7945;48.816;11.506;2023-05-10T05:59:55;0.80;;;0.80;;
15689;SDS011;7945;48.816;11.506;2023-05-10T06:02:23;0.73;;;0.73;;
15689;SDS011;7945;48.816;11.506;2023-05-10T06:04:50;1.05;;;1.00;;
15689;SDS011;7945;48.816;11.506;2023-05-10T06:07:16;3.80;;;0.90;;
15689;SDS011;7945;48.816;11.506;2023-05-10T06:09:43;0.80;;;0.80;;
15689;SDS011;7945;48.816;11.506;2023-05-10T06:15:21;1.08;;;0.98;;
15689;SDS011;7945;48.816;11.506;2023-05-10T06:17:48;1.20;;;1.10;;
15689;SDS011;7945;48.816;11.506;2023-05-10T06:20:15;1.35;;;1.30;;
15689;SDS011;7945;48.816;11.506;2023-05-10T06:22:42;1.10;;;1.10;;
15689;SDS011;7945;48.816;11.506;2023-05-10T06:25:09;1.02;;;1.02;;
15689;SDS011;7945;48.816;11.506;2023-05-10T06:27:36;1.23;;;1.08;;
15689;SDS011;7945;48.816;11.506;2023-05-10T06:30:03;1.17;;;1.05;;
15689;SDS011;7945;48.816;11.506;2023-05-10T06:32:32;1.50;;;1.10;;
15689;SDS011;7945;48.816;11.506;2023-05-10T06:34:58;0.98;;;0.90;;
15689;SDS011;7945;48.816;11.506;2023-05-10T06:37:25;1.27;;;1.17;;
15689;SDS011;7945;48.816;11.506;2023-05-10T06:39:52;1.10;;;1.10;;
15689;SDS011;7945;48.816;11.506;2023-05-10T06:42:19;3.70;;;1.50;;
15689;SDS011;7945;48.816;11.506;2023-05-10T06:44:45;1.15;;;1.02;;
15689;SDS011;7945;48.816;11.506;2023-05-10T06:47:12;1.50;;;1.40;;
15689;SDS011;7945;48.816;11.506;2023-05-10T06:49:40;1.20;;;1.10;;
15689;SDS011;7945;48.816;11.506;2023-05-10T06:52:07;0.90;;;0.90;;
15689;SDS011;7945;48.816;11.506;2023-05-10T06:54:33;1.35;;;1.20;;
15689;SDS011;7945;48.816;11.506;2023-05-10T06:57:00;1.00;;;1.00;;
15689;SDS011;7945;48.816;11.506;2023-05-10T06:59:27;1.10;;;1.10;;
15689;SDS011;7945;48.816;11.506;2023-05-10T07:01:54;1.42;;;1.35;;
15689;SDS011;7945;48.816;11.506;2023-05-10T07:04:21;1.20;;;1.10;;
15689;SDS011;7945;48.816;11.506;2023-05-10T07:06:49;12.43;;;1.80;;
15689;SDS011;7945;48.816;11.506;2023-05-10T07:09:16;1.02;;;1.02;;
15689;SDS011;7945;48.816;11.506;2023-05-10T07:11:42;1.10;;;1.10;;
15689;SDS011;7945;48.816;11.506;2023-05-10T07:14:09;1.10;;;1.10;;
15689;SDS011;7945;48.816;11.506;2023-05-10T07:16:36;1.23;;;1.13;;
15689;SDS011;7945;48.816;11.506;2023-05-10T07:19:03;0.90;;;0.90;;
15689;SDS011;7945;48.816;11.506;2023-05-10T07:21:30;1.08;;;1.08;;
15689;SDS011;7945;48.816;11.506;2023-05-10T07:23:58;2.58;;;1.10;;
15689;SDS011;7945;48.816;11.506;2023-05-10T07:26:25;1.55;;;1.00;;
15689;SDS011;7945;48.816;11.506;2023-05-10T07:28:52;1.77;;;1.10;;
15689;SDS011;7945;48.816;11.506;2023-05-10T07:31:19;1.10;;;1.10;;
15689;SDS011;7945;48.816;11.506;2023-05-10T07:33:46;1.23;;;1.17;;
15689;SDS011;7945;48.816;11.506;2023-05-10T07:36:12;1.05;;;1.05;;
15689;SDS011;7945;48.816;11.506;2023-05-10T07:38:39;1.15;;;1.10;;
15689;SDS011;7945;48.816;11.506;2023-05-10T07:41:07;1.63;;;1.52;;
15689;SDS011;7945;48.816;11.506;2023-05-10T07:43:34;2.10;;;1.20;;
15689;SDS011;7945;48.816;11.506;2023-05-10T07:46:00;3.42;;;1.20;;
15689;SDS011;7945;48.816;11.506;2023-05-10T07:48:27;0.93;;;0.93;;
15689;SDS011;7945;48.816;11.506;2023-05-10T07:50:54;1.20;;;1.10;;
15689;SDS011;7945;48.816;11.506;2023-05-10T07:53:21;1.30;;;1.20;;
15689;SDS011;7945;48.816;11.506;2023-05-10T07:55:49;1.48;;;1.10;;
15689;SDS011;7945;48.816;11.506;2023-05-10T07:58:18;1.40;;;1.30;;
15689;SDS011;7945;48.816;11.506;2023-05-10T08:00:44;3.20;;;1.48;;
15689;SDS011;7945;48.816;11.506;2023-05-10T08:03:11;1.40;;;1.30;;
15689;SDS011;7945;48.816;11.506;2023-05-10T08:05:38;1.35;;;1.23;;
15689;SDS011;7945;48.816;11.506;2023-05-10T08:08:04;2.55;;;1.33;;
15689;SDS011;7945;48.816;11.506;2023-05-10T08:10:31;1.48;;;1.38;;
15689;SDS011;7945;48.816;11.506;2023-05-10T08:12:58;1.35;;;1.08;;
15689;SDS011;7945;48.816;11.506;2023-05-10T08:15:26;1.33;;;1.23;;
15689;SDS011;7945;48.816;11.506;2023-05-10T08:17:53;1.30;;;1.13;;
15689;SDS011;7945;48.816;11.506;2023-05-10T08:20:19;2.05;;;1.30;;
15689;SDS011;7945;48.816;11.506;2023-05-10T08:22:46;1.73;;;1.50;;
15689;SDS011;7945;48.816;11.506;2023-05-10T08:25:13;1.63;;;1.30;;
15689;SDS011;7945;48.816;11.506;2023-05-10T08:27:40;1.40;;;1.30;;
15689;SDS011;7945;48.816;11.506;2023-05-10T08:30:07;2.35;;;1.20;;
15689;SDS011;7945;48.816;11.506;2023-05-10T08:32:36;1.45;;;1.35;;
15689;SDS011;7945;48.816;11.506;2023-05-10T08:35:04;1.75;;;1.58;;
15689;SDS011;7945;48.816;11.506;2023-05-10T08:37:31;1.10;;;1.10;;
15689;SDS011;7945;48.816;11.506;2023-05-10T08:39:58;1.10;;;1.10;;
15689;SDS011;7945;48.816;11.506;2023-05-10T08:42:25;1.45;;;1.35;;
15689;SDS011;7945;48.816;11.506;2023-05-10T08:44:54;1.73;;;1.40;;
15689;SDS011;7945;48.816;11.506;2023-05-10T08:47:23;1.40;;;1.30;;
15689;SDS011;7945;48.816;11.506;2023-05-10T08:49:52;1.25;;;1.15;;
15689;SDS011;7945;48.816;11.506;2023-05-10T08:52:20;2.00;;;1.17;;
15689;SDS011;7945;48.816;11.506;2023-05-10T08:54:50;2.08;;;1.40;;
15689;SDS011;7945;48.816;11.506;2023-05-10T08:57:16;1.38;;;1.30;;
15689;SDS011;7945;48.816;11.506;2023-05-10T08:59:44;1.55;;;1.45;;
15689;SDS011;7945;48.816;11.506;2023-05-10T09:02:11;0.90;;;0.90;;
15689;SDS011;7945;48.816;11.506;2023-05-10T09:04:39;1.65;;;0.95;;
15689;SDS011;7945;48.816;11.506;2023-05-10T09:07:08;1.30;;;1.00;;
15689;SDS011;7945;48.816;11.506;2023-05-10T09:09:34;1.27;;;1.10;;
15689;SDS011;7945;48.816;11.506;2023-05-10T09:12:02;1.23;;;1.00;;
15689;SDS011;7945;48.816;11.506;2023-05-10T09:14:30;2.30;;;1.20;;
15689;SDS011;7945;48.816;11.506;2023-05-10T09:16:59;1.00;;;1.00;;
15689;SDS011;7945;48.816;11.506;2023-05-10T09:19:27;1.08;;;1.05;;
15689;SDS011;7945;48.816;11.506;2023-05-10T09:21:54;1.30;;;1.10;;
15689;SDS011;7945;48.816;11.506;2023-05-10T09:24:25;1.10;;;1.10;;
15689;SDS011;7945;48.816;11.506;2023-05-10T09:26:52;1.27;;;1.17;;
15689;SDS011;7945;48.816;11.506;2023-05-10T09:29:19;1.30;;;1.30;;
15689;SDS011;7945;48.816;11.506;2023-05-10T09:31:46;2.20;;;1.20;;
15689;SDS011;7945;48.816;11.506;2023-05-10T09:34:16;1.20;;;0.90;;
15689;SDS011;7945;48.816;11.506;2023-05-10T09:36:50;1.20;;;1.10;;
15689;SDS011;7945;48.816;11.506;2023-05-10T09:39:21;1.33;;;1.15;;
15689;SDS011;7945;48.816;11.506;2023-05-10T09:41:58;1.63;;;1.52;;
15689;SDS011;7945;48.816;11.506;2023-05-10T09:44:25;1.85;;;1.10;;
15689;SDS011;7945;48.816;11.506;2023-05-10T09:46:52;1.10;;;1.00;;
15689;SDS011;7945;48.816;11.506;2023-05-10T09:49:19;1.13;;;0.90;;
15689;SDS011;7945;48.816;11.506;2023-05-10T09:51:46;3.03;;;1.10;;
15689;SDS011;7945;48.816;11.506;2023-05-10T09:54:14;2.60;;;1.23;;
15689;SDS011;7945;48.816;11.506;2023-05-10T09:56:43;1.20;;;1.10;;
15689;SDS011;7945;48.816;11.506;2023-05-10T09:59:10;1.27;;;1.17;;
15689;SDS011;7945;48.816;11.506;2023-05-10T10:01:38;1.08;;;1.08;;
15689;SDS011;7945;48.816;11.506;2023-05-10T10:04:06;1.83;;;1.17;;
15689;SDS011;7945;48.816;11.506;2023-05-10T10:06:36;1.30;;;1.10;;
15689;SDS011;7945;48.816;11.506;2023-05-10T10:09:03;2.40;;;1.10;;
15689;SDS011;7945;48.816;11.506;2023-05-10T10:11:32;1.67;;;1.00;;
15689;SDS011;7945;48.816;11.506;2023-05-10T10:14:01;1.40;;;1.10;;
15689;SDS011;7945;48.816;11.506;2023-05-10T10:16:28;1.33;;;1.05;;
15689;SDS011;7945;48.816;11.506;2023-05-10T10:18:55;1.40;;;1.30;;
15689;SDS011;7945;48.816;11.506;2023-05-10T10:21:22;1.50;;;1.40;;
15689;SDS011;7945;48.816;11.506;2023-05-10T10:23:50;1.95;;;1.10;;
15689;SDS011;7945;48.816;11.506;2023-05-10T10:26:18;1.30;;;1.20;;
15689;SDS011;7945;48.816;11.506;2023-05-10T10:28:47;1.40;;;1.10;;
15689;SDS011;7945;48.816;11.506;2023-05-10T10:31:26;1.15;;;1.05;;
15689;SDS011;7945;48.816;11.506;2023-05-10T10:34:01;1.58;;;1.15;;
15689;SDS011;7945;48.816;11.506;2023-05-10T10:36:32;3.80;;;1.10;;
15689;SDS011;7945;48.816;11.506;2023-05-10T10:39:04;1.08;;;1.08;;
15689;SDS011;7945;48.816;11.506;2023-05-10T10:41:36;1.45;;;1.00;;
15689;SDS011;7945;48.816;11.506;2023-05-10T10:44:24;1.25;;;1.10;;
15689;SDS011;7945;48.816;11.506;2023-05-10T10:47:02;0.98;;;0.98;;
15689;SDS011;7945;48.816;11.506;2023-05-10T10:49:36;1.00;;;1.00;;
15689;SDS011;7945;48.816;11.506;2023-05-10T10:52:14;1.33;;;0.93;;
15689;SDS011;7945;48.816;11.506;2023-05-10T10:54:54;1.27;;;1.10;;
15689;SDS011;7945;48.816;11.506;2023-05-10T10:57:25;1.10;;;0.93;;
15689;SDS011;7945;48.816;11.506;2023-05-10T10:59:54;1.02;;;0.80;;
15689;SDS011;7945;48.816;11.506;2023-05-10T11:02:49;1.15;;;1.10;;
15689;SDS011;7945;48.816;11.506;2023-05-10T11:08:18;1.77;;;1.00;;
15689;SDS011;7945;48.816;11.506;2023-05-10T11:10:50;1.50;;;1.08;;
15689;SDS011;7945;48.816;11.506;2023-05-10T11:13:29;1.75;;;1.00;;
15689;SDS011;7945;48.816;11.506;2023-05-10T11:15:56;1.00;;;1.00;;
15689;SDS011;7945;48.816;11.506;2023-05-10T11:18:26;1.00;;;1.00;;
15689;SDS011;7945;48.816;11.506;2023-05-10T11:20:56;2.10;;;1.00;;
15689;SDS011;7945;48.816;11.506;2023-05-10T11:23:29;0.98;;;0.85;;
15689;SDS011;7945;48.816;11.506;2023-05-10T11:25:56;1.10;;;1.00;;
15689;SDS011;7945;48.816;11.506;2023-05-10T11:28:24;2.40;;;1.15;;
15689;SDS011;7945;48.816;11.506;2023-05-10T11:30:52;2.28;;;1.00;;
15689;SDS011;7945;48.816;11.506;2023-05-10T11:33:20;2.22;;;1.30;;
15689;SDS011;7945;48.816;11.506;2023-05-10T11:35:48;1.83;;;1.35;;
15689;SDS011;7945;48.816;11.506;2023-05-10T11:38:15;0.95;;;0.95;;
15689;SDS011;7945;48.816;11.506;2023-05-10T11:40:42;1.40;;;1.30;;
15689;SDS011;7945;48.816;11.506;2023-05-10T11:43:09;1.17;;;1.08;;
15689;SDS011;7945;48.816;11.506;2023-05-10T11:45:37;1.77;;;1.52;;
15689;SDS011;7945;48.816;11.506;2023-05-10T11:48:04;1.00;;;1.00;;
15689;SDS011;7945;48.816;11.506;2023-05-10T11:50:31;1.35;;;1.25;;
15689;SDS011;7945;48.816;11.506;2023-05-10T11:53:00;1.95;;;1.10;;
15689;SDS011;7945;48.816;11.506;2023-05-10T11:55:27;1.00;;;1.00;;
15689;SDS011;7945;48.816;11.506;2023-05-10T11:57:55;0.90;;;0.90;;
15689;SDS011;7945;48.816;11.506;2023-05-10T12:00:27;1.10;;;1.10;;
15689;SDS011;7945;48.816;11.506;2023-05-10T12:02:54;1.67;;;1.10;;
15689;SDS011;7945;48.816;11.506;2023-05-10T12:05:21;1.25;;;1.17;;
15689;SDS011;7945;48.816;11.506;2023-05-10T12:07:48;1.35;;;1.25;;
15689;SDS011;7945;48.816;11.506;2023-05-10T12:10:17;1.45;;;1.17;;
15689;SDS011;7945;48.816;11.506;2023-05-10T12:12:52;2.38;;;1.20;;
15689;SDS011;7945;48.816;11.506;2023-05-10T12:15:19;1.60;;;1.42;;
15689;SDS011;7945;48.816;11.506;2023-05-10T12:17:47;1.60;;;1.40;;
15689;SDS011;7945;48.816;11.506;2023-05-10T12:20:16;2.15;;;1.30;;
15689;SDS011;7945;48.816;11.506;2023-05-10T12:22:44;1.45;;;1.35;;
15689;SDS011;7945;48.816;11.506;2023-05-10T12:25:12;1.85;;;1.38;;
15689;SDS011;7945;48.816;11.506;2023-05-10T12:27:40;1.73;;;1.60;;
15689;SDS011;7945;48.816;11.506;2023-05-10T12:30:13;1.70;;;1.60;;
15689;SDS011;7945;48.816;11.506;2023-05-10T12:32:46;1.70;;;1.60;;
15689;SDS011;7945;48.816;11.506;2023-05-10T12:35:13;1.50;;;1.40;;
15689;SDS011;7945;48.816;11.506;2023-05-10T12:37:40;1.50;;;1.40;;
15689;SDS011;7945;48.816;11.506;2023-05-10T12:40:08;1.48;;;1.35;;
15689;SDS011;7945;48.816;11.506;2023-05-10T12:42:36;1.70;;;1.38;;
15689;SDS011;7945;48.816;11.506;2023-05-10T12:45:06;1.40;;;1.30;;
15689;SDS011;7945;48.816;11.506;2023-05-10T12:47:34;1.30;;;1.20;;
15689;SDS011;7945;48.816;11.506;2023-05-10T12:50:01;1.40;;;1.30;;
15689;SDS011;7945;48.816;11.506;2023-05-10T12:52:28;1.48;;;1.30;;
15689;SDS011;7945;48.816;11.506;2023-05-10T12:54:57;1.40;;;1.30;;
15689;SDS011;7945;48.816;11.506;2023-05-10T12:57:24;2.03;;;1.27;;
15689;SDS011;7945;48.816;11.506;2023-05-10T12:59:50;1.13;;;1.13;;
15689;SDS011;7945;48.816;11.506;2023-05-10T13:02:18;3.15;;;1.10;;
15689;SDS011;7945;48.816;11.506;2023-05-10T13:04:46;1.35;;;1.20;;
15689;SDS011;7945;48.816;11.506;2023-05-10T13:07:13;2.28;;;1.38;;
15689;SDS011;7945;48.816;11.506;2023-05-10T13:09:40;1.98;;;1.73;;
15689;SDS011;7945;48.816;11.506;2023-05-10T13:12:06;1.30;;;1.20;;
15689;SDS011;7945;48.816;11.506;2023-05-10T13:14:33;1.25;;;1.15;;
15689;SDS011;7945;48.816;11.506;2023-05-10T13:17:00;1.23;;;1.10;;
15689;SDS011;7945;48.816;11.506;2023-05-10T13:19:28;2.28;;;1.10;;
15689;SDS011;7945;48.816;11.506;2023-05-10T13:21:55;2.28;;;1.40;;
15689;SDS011;7945;48.816;11.506;2023-05-10T13:24:22;3.03;;;1.85;;
15689;SDS011;7945;48.816;11.506;2023-05-10T13:26:49;4.20;;;2.10;;
15689;SDS011;7945;48.816;11.506;2023-05-10T13:29:16;8.25;;;1.80;;
15689;SDS011;7945;48.816;11.506;2023-05-10T13:31:43;3.78;;;2.00;;
15689;SDS011;7945;48.816;11.506;2023-05-10T13:34:10;3.30;;;1.77;;
15689;SDS011;7945;48.816;11.506;2023-05-10T13:36:38;3.05;;;1.50;;
15689;SDS011;7945;48.816;11.506;2023-05-10T13:39:05;1.42;;;1.20;;
15689;SDS011;7945;48.816;11.506;2023-05-10T13:41:31;5.03;;;1.30;;
15689;SDS011;7945;48.816;11.506;2023-05-10T13:43:59;1.35;;;1.00;;
15689;SDS011;7945;48.816;11.506;2023-05-10T13:46:26;1.08;;;0.93;;
15689;SDS011;7945;48.816;11.506;2023-05-10T13:48:52;1.67;;;1.00;;
15689;SDS011;7945;48.816;11.506;2023-05-10T13:51:19;1.92;;;1.20;;
15689;SDS011;7945;48.816;11.506;2023-05-10T13:53:47;1.13;;;1.00;;
15689;SDS011;7945;48.816;11.506;2023-05-10T13:56:14;1.30;;;1.10;;
15689;SDS011;7945;48.816;11.506;2023-05-10T13:58:41;1.48;;;1.10;;
15689;SDS011;7945;48.816;11.506;2023-05-10T14:01:08;1.20;;;1.10;;
15689;SDS011;7945;48.816;11.506;2023-05-10T14:03:35;1.30;;;1.20;;
15689;SDS011;7945;48.816;11.506;2023-05-10T14:06:01;2.35;;;1.10;;
15689;SDS011;7945;48.816;11.506;2023-05-10T14:08:28;1.33;;;1.23;;
15689;SDS011;7945;48.816;11.506;2023-05-10T14:10:56;1.83;;;1.15;;
15689;SDS011;7945;48.816;11.506;2023-05-10T14:13:23;2.67;;;1.35;;
15689;SDS011;7945;48.816;11.506;2023-05-10T14:15:50;1.30;;;1.15;;
15689;SDS011;7945;48.816;11.506;2023-05-10T14:18:18;2.15;;;1.50;;
15689;SDS011;7945;48.816;11.506;2023-05-10T14:20:45;1.48;;;1.38;;
15689;SDS011;7945;48.816;11.506;2023-05-10T14:23:12;0.90;;;0.90;;
15689;SDS011;7945;48.816;11.506;2023-05-10T14:25:39;1.67;;;1.30;;
15689;SDS011;7945;48.816;11.506;2023-05-10T14:28:08;1.65;;;1.20;;
15689;SDS011;7945;48.816;11.506;2023-05-10T14:30:34;2.05;;;1.40;;
15689;SDS011;7945;48.816;11.506;2023-05-10T14:33:01;1.20;;;1.10;;
15689;SDS011;7945;48.816;11.506;2023-05-10T14:35:28;2.55;;;1.40;;
15689;SDS011;7945;48.816;11.506;2023-05-10T14:37:56;1.88;;;1.42;;
15689;SDS011;7945;48.816;11.506;2023-05-10T14:40:23;2.08;;;1.55;;
15689;SDS011;7945;48.816;11.506;2023-05-10T14:42:51;1.40;;;1.30;;
15689;SDS011;7945;48.816;11.506;2023-05-10T14:45:20;1.50;;;1.27;;
15689;SDS011;7945;48.816;11.506;2023-05-10T14:47:47;2.22;;;1.40;;
15689;SDS011;7945;48.816;11.506;2023-05-10T14:50:14;1.48;;;1.38;;
15689;SDS011;7945;48.816;11.506;2023-05-10T14:52:42;1.63;;;1.50;;
15689;SDS011;7945;48.816;11.506;2023-05-10T14:55:09;1.92;;;1.60;;
15689;SDS011;7945;48.816;11.506;2023-05-10T14:57:35;1.40;;;1.30;;
15689;SDS011;7945;48.816;11.506;2023-05-10T15:00:03;1.90;;;1.50;;
15689;SDS011;7945;48.816;11.506;2023-05-10T15:02:32;1.55;;;1.40;;